createdAt,value
2018-10-19T00:02:09.313Z,12.00
2018-10-19T00:05:13.012Z,12.60
2018-10-19T00:08:16.718Z,12.37
2018-10-19T00:11:20.433Z,13.77
2018-10-19T00:14:24.182Z,13.80
2018-10-19T00:17:27.889Z,13.93
2018-10-19T00:20:31.500Z,13.33
2018-10-19T00:23:35.165Z,13.27
2018-10-19T00:26:38.848Z,13.97
2018-10-19T00:29:42.605Z,13.60
2018-10-19T00:32:46.212Z,14.43
2018-10-19T00:35:49.832Z,14.63
2018-10-19T00:38:53.459Z,15.30
2018-10-19T00:41:56.967Z,15.80
2018-10-19T00:45:00.577Z,15.30
2018-10-19T00:48:11.964Z,14.67
2018-10-19T00:51:15.538Z,15.90
2018-10-19T00:54:19.203Z,16.47
2018-10-19T00:57:22.903Z,15.60
2018-10-19T01:00:26.528Z,16.30
2018-10-19T01:03:30.089Z,15.97
2018-10-19T01:06:33.699Z,16.10
2018-10-19T01:09:37.445Z,15.90
2018-10-19T01:12:41.023Z,15.50
2018-10-19T01:15:44.539Z,15.30
2018-10-19T01:18:48.129Z,16.17
2018-10-19T01:21:51.709Z,15.43
2018-10-19T01:24:55.379Z,16.13
2018-10-19T01:27:58.974Z,15.83
2018-10-19T01:31:02.523Z,17.40
2018-10-19T01:34:06.278Z,16.50
2018-10-19T01:37:09.913Z,16.60
2018-10-19T01:40:14.230Z,16.13
2018-10-19T01:43:17.816Z,18.03
2018-10-19T01:46:21.419Z,15.90
2018-10-19T01:49:24.998Z,17.53
2018-10-19T01:52:28.619Z,17.60
2018-10-19T01:55:32.115Z,18.33
2018-10-19T01:58:35.781Z,18.40
2018-10-19T02:01:39.267Z,18.37
2018-10-19T02:04:42.832Z,17.47
2018-10-19T02:07:46.487Z,19.00
2018-10-19T02:10:50.033Z,19.23
2018-10-19T02:13:53.725Z,17.73
2018-10-19T02:16:57.401Z,16.70
2018-10-19T02:20:00.937Z,18.40
2018-10-19T02:23:04.774Z,17.53
2018-10-19T02:26:08.434Z,18.80
2018-10-19T02:29:12.045Z,17.83
2018-10-19T02:32:15.620Z,17.53
2018-10-19T02:35:19.402Z,17.83
2018-10-19T02:38:23.046Z,18.40
2018-10-19T02:41:26.574Z,17.93
2018-10-19T02:44:30.232Z,17.57
2018-10-19T02:47:33.974Z,20.80
2018-10-19T02:50:37.526Z,20.40
2018-10-19T02:53:41.094Z,20.27
2018-10-19T02:56:44.634Z,21.27
2018-10-19T02:59:48.299Z,19.40
2018-10-19T03:02:51.876Z,18.10
2018-10-19T03:05:55.371Z,18.37
2018-10-19T03:08:58.936Z,22.27
2018-10-19T03:15:27.998Z,18.17
2018-10-19T03:18:31.520Z,19.63
2018-10-19T03:21:35.080Z,24.03
2018-10-19T03:24:38.925Z,20.77
2018-10-19T03:27:42.666Z,18.40
2018-10-19T03:30:46.281Z,16.40
2018-10-19T03:33:49.815Z,17.53
2018-10-19T03:36:53.394Z,18.50
2018-10-19T03:39:57.002Z,16.70
2018-10-19T03:43:00.584Z,17.83
2018-10-19T03:46:04.195Z,17.23
2018-10-19T03:49:07.932Z,17.97
2018-10-19T03:52:11.408Z,14.43
2018-10-19T03:55:15.122Z,15.97
2018-10-19T03:58:18.761Z,16.60
2018-10-19T04:01:22.454Z,14.20
2018-10-19T04:04:25.989Z,16.00
2018-10-19T04:07:29.620Z,17.77
2018-10-19T04:10:33.201Z,16.30
2018-10-19T04:13:37.760Z,17.07
2018-10-19T04:16:41.420Z,16.07
2018-10-19T04:19:45.105Z,14.37
2018-10-19T04:22:48.633Z,16.70
2018-10-19T04:25:52.176Z,18.40
2018-10-19T04:28:55.760Z,17.00
2018-10-19T04:31:59.295Z,16.67
2018-10-19T04:35:02.980Z,18.57
2018-10-19T04:38:06.520Z,17.70
2018-10-19T04:41:10.166Z,18.57
2018-10-19T04:44:13.727Z,17.10
2018-10-19T04:47:24.032Z,15.87
2018-10-19T04:50:27.662Z,15.00
2018-10-19T04:53:31.398Z,14.57
2018-10-19T04:56:34.890Z,17.87
2018-10-19T04:59:38.483Z,15.93
2018-10-19T05:02:42.104Z,16.70
2018-10-19T05:05:45.684Z,15.40
2018-10-19T05:08:49.214Z,17.50
2018-10-19T05:11:52.857Z,18.63
2018-10-19T05:14:56.375Z,14.77
2018-10-19T05:18:00.181Z,14.60
2018-10-19T05:21:04.038Z,16.17
2018-10-19T05:24:07.664Z,15.43
2018-10-19T05:27:11.322Z,15.73
2018-10-19T05:30:14.895Z,17.20
2018-10-19T05:33:18.462Z,16.67
2018-10-19T05:36:22.308Z,17.43
2018-10-19T05:39:25.846Z,15.50
2018-10-19T05:42:29.464Z,14.37
2018-10-19T05:45:33.068Z,16.47
2018-10-19T05:48:36.588Z,14.00
2018-10-19T05:51:40.115Z,13.23
2018-10-19T05:54:43.867Z,15.00
2018-10-19T05:57:47.435Z,13.27
2018-10-19T06:00:50.945Z,13.13
2018-10-19T06:03:54.536Z,16.70
2018-10-19T06:06:58.181Z,14.53
2018-10-19T06:10:01.863Z,13.07
2018-10-19T06:13:05.476Z,12.97
2018-10-19T06:16:09.061Z,12.90
2018-10-19T06:19:12.612Z,13.63
2018-10-19T06:22:16.217Z,12.30
2018-10-19T06:25:19.707Z,12.10
2018-10-19T06:28:23.323Z,13.27
2018-10-19T06:31:26.968Z,13.10
2018-10-19T06:34:30.521Z,12.37
2018-10-19T06:37:34.160Z,12.97
2018-10-19T06:40:37.753Z,12.33
2018-10-19T06:43:41.446Z,14.63
2018-10-19T06:46:45.060Z,14.00
2018-10-19T06:49:48.538Z,13.60
2018-10-19T06:52:52.096Z,11.67
2018-10-19T06:55:59.273Z,10.80
2018-10-19T06:59:05.166Z,11.70
2018-10-19T07:02:11.169Z,11.83
2018-10-19T07:05:16.042Z,11.40
2018-10-19T07:08:19.946Z,9.93
2018-10-19T07:11:23.593Z,11.20
2018-10-19T07:14:28.629Z,11.10
2018-10-19T07:17:32.160Z,10.80
2018-10-19T07:20:35.862Z,10.77
2018-10-19T07:23:39.443Z,11.60
2018-10-19T07:26:43.044Z,10.80
2018-10-19T07:29:46.675Z,12.30
2018-10-19T07:32:50.218Z,11.33
2018-10-19T07:35:54.063Z,12.30
2018-10-19T07:38:57.597Z,12.50
2018-10-19T07:42:01.193Z,11.83
2018-10-19T07:45:04.852Z,10.87
2018-10-19T07:48:08.711Z,11.83
2018-10-19T07:51:12.964Z,10.30
2018-10-19T07:54:16.535Z,9.63
2018-10-19T07:57:20.133Z,10.10
2018-10-19T08:00:23.786Z,11.13
2018-10-19T08:03:27.399Z,13.13
2018-10-19T08:06:31.047Z,12.30
2018-10-19T08:09:34.644Z,11.73
2018-10-19T08:12:38.265Z,13.10
2018-10-19T08:15:41.798Z,11.90
2018-10-19T08:18:45.403Z,13.30
2018-10-19T08:21:49.081Z,14.87
2018-10-19T08:24:53.694Z,12.13
2018-10-19T08:27:57.214Z,13.77
2018-10-19T08:31:00.808Z,13.90
2018-10-19T08:34:04.653Z,12.43
2018-10-19T08:37:08.188Z,12.93
2018-10-19T08:40:11.693Z,13.97
2018-10-19T08:43:15.330Z,13.30
2018-10-19T08:46:24.210Z,12.60
2018-10-19T08:49:27.858Z,12.93
2018-10-19T08:52:31.450Z,13.80
2018-10-19T08:55:35.148Z,14.07
2018-10-19T08:58:38.699Z,12.77
2018-10-19T09:01:42.254Z,13.67
2018-10-19T09:04:45.797Z,14.40
2018-10-19T09:07:49.474Z,12.50
2018-10-19T09:10:53.269Z,11.87
2018-10-19T09:13:56.820Z,12.77
2018-10-19T09:17:00.529Z,12.27
2018-10-19T09:20:04.395Z,12.00
2018-10-19T09:23:08.106Z,12.00
2018-10-19T09:26:11.654Z,12.70
2018-10-19T09:29:15.711Z,12.80
2018-10-19T09:32:19.258Z,11.37
2018-10-19T09:35:22.790Z,10.47
2018-10-19T09:38:26.342Z,10.97
2018-10-19T09:41:30.139Z,11.10
2018-10-19T09:44:33.859Z,10.17
2018-10-19T09:47:37.526Z,10.90
2018-10-19T09:50:41.124Z,11.00
2018-10-19T09:53:44.684Z,10.70
2018-10-19T09:56:48.257Z,11.03
2018-10-19T09:59:51.855Z,11.67
2018-10-19T10:02:55.549Z,11.23
2018-10-19T10:05:59.204Z,10.53
2018-10-19T10:09:03.004Z,11.70
2018-10-19T10:12:06.519Z,11.60
2018-10-19T10:15:10.240Z,11.83
2018-10-19T10:18:13.550Z,12.10
2018-10-19T10:21:17.375Z,12.23
2018-10-19T10:24:21.011Z,12.43
2018-10-19T10:27:24.721Z,11.90
2018-10-19T10:30:28.367Z,13.13
2018-10-19T10:33:31.985Z,12.10
2018-10-19T10:36:35.541Z,12.83
2018-10-19T10:39:39.076Z,12.67
2018-10-19T10:42:42.637Z,13.07
2018-10-19T10:45:46.210Z,12.37
2018-10-19T10:48:49.704Z,13.70
2018-10-19T10:51:53.431Z,12.77
2018-10-19T10:54:57.060Z,12.13
2018-10-19T10:58:00.724Z,12.70
2018-10-19T11:01:04.456Z,12.57
2018-10-19T11:04:08.123Z,13.37
2018-10-19T11:07:11.604Z,12.30
2018-10-19T11:10:15.137Z,12.30
2018-10-19T11:13:18.840Z,12.70
2018-10-19T11:16:22.447Z,12.20
2018-10-19T11:19:26.024Z,11.93
2018-10-19T11:22:29.605Z,12.50
2018-10-19T11:25:33.384Z,12.50
2018-10-19T11:28:36.949Z,12.50
2018-10-19T11:31:40.567Z,12.07
2018-10-19T11:34:44.079Z,12.00
2018-10-19T11:37:47.776Z,11.27
2018-10-19T11:40:51.305Z,12.53
2018-10-19T11:43:54.826Z,12.07
2018-10-19T11:47:00.732Z,11.40
2018-10-19T11:50:04.346Z,11.17
2018-10-19T11:53:07.986Z,12.47
2018-10-19T11:56:11.509Z,11.50
2018-10-19T11:59:15.099Z,10.50
2018-10-19T12:02:18.611Z,11.03
2018-10-19T12:05:22.282Z,10.50
2018-10-19T12:08:25.833Z,10.87
2018-10-19T12:11:29.520Z,9.93
2018-10-19T12:14:33.066Z,8.10
2018-10-19T12:17:36.632Z,8.43
2018-10-19T12:20:40.248Z,9.47
2018-10-19T12:23:43.882Z,8.50
2018-10-19T12:26:47.451Z,6.57
2018-10-19T12:29:51.137Z,8.03
2018-10-19T12:32:54.727Z,7.50
2018-10-19T12:35:58.312Z,5.67
2018-10-19T12:39:02.023Z,5.77
2018-10-19T12:42:05.845Z,5.83
2018-10-19T12:45:20.532Z,5.20
2018-10-19T12:48:24.201Z,5.40
2018-10-19T12:51:27.870Z,5.90
2018-10-19T12:54:32.872Z,5.80
2018-10-19T12:57:36.723Z,6.10
2018-10-19T13:00:40.456Z,6.00
2018-10-19T13:03:44.288Z,6.00
2018-10-19T13:06:47.925Z,5.70
2018-10-19T13:09:51.753Z,5.50
2018-10-19T13:12:55.377Z,5.23
2018-10-19T13:15:59.626Z,4.70
2018-10-19T13:19:03.543Z,5.47
2018-10-19T13:22:07.201Z,5.00
2018-10-19T13:25:10.943Z,5.10
2018-10-19T13:28:14.912Z,5.30
2018-10-19T13:31:18.575Z,5.23
2018-10-19T13:34:22.385Z,5.00
2018-10-19T13:37:26.042Z,5.23
2018-10-19T13:40:29.701Z,5.07
2018-10-19T13:43:33.173Z,5.43
2018-10-19T13:46:36.991Z,4.20
2018-10-19T13:49:40.655Z,5.20
2018-10-19T13:52:44.369Z,4.43
2018-10-19T13:55:48.063Z,5.17
2018-10-19T13:58:51.673Z,4.70
2018-10-19T14:01:55.377Z,4.30
2018-10-19T14:04:59.024Z,5.60
2018-10-19T14:08:02.534Z,4.33
2018-10-19T14:11:06.440Z,5.30
2018-10-19T14:14:10.174Z,4.13
2018-10-19T14:17:14.006Z,4.30
2018-10-19T14:20:17.643Z,4.50
2018-10-19T14:23:21.236Z,4.10
2018-10-19T14:26:24.821Z,4.20
2018-10-19T14:29:28.539Z,6.53
2018-10-19T14:32:32.153Z,4.70
2018-10-19T14:35:35.903Z,4.30
2018-10-19T14:38:39.614Z,4.43
2018-10-19T14:41:43.304Z,4.17
2018-10-19T14:44:46.968Z,3.80
2018-10-19T14:47:50.488Z,3.63
2018-10-19T14:50:54.129Z,3.90
2018-10-19T14:53:57.778Z,3.50
2018-10-19T14:57:01.418Z,3.60
2018-10-19T15:00:05.883Z,3.60
2018-10-19T15:03:09.693Z,3.60
2018-10-19T15:06:13.236Z,3.43
2018-10-19T15:09:17.044Z,3.63
2018-10-19T15:12:20.768Z,3.63
2018-10-19T15:15:24.497Z,4.43
2018-10-19T15:18:28.087Z,3.30
2018-10-19T15:21:31.842Z,3.80
2018-10-19T15:24:35.484Z,3.37
2018-10-19T15:27:40.010Z,3.27
2018-10-19T15:30:43.633Z,3.27
2018-10-19T15:33:47.178Z,3.00
2018-10-19T15:36:50.790Z,3.80
2018-10-19T15:39:54.568Z,4.13
2018-10-19T15:42:58.214Z,4.80
2018-10-19T15:46:01.799Z,4.77
2018-10-19T15:49:05.425Z,4.33
2018-10-19T15:52:08.987Z,4.30
2018-10-19T15:55:12.643Z,4.30
2018-10-19T15:58:16.315Z,4.43
2018-10-19T16:01:19.909Z,4.30
2018-10-19T16:04:23.516Z,4.40
2018-10-19T16:07:27.163Z,4.40
2018-10-19T16:10:30.817Z,4.40
2018-10-19T16:13:34.642Z,3.60
2018-10-19T16:16:38.270Z,4.30
2018-10-19T16:19:42.183Z,3.80
2018-10-19T16:22:45.802Z,4.33
2018-10-19T16:25:49.492Z,4.30
2018-10-19T16:28:53.133Z,4.27
2018-10-19T16:31:56.840Z,4.73
2018-10-19T16:35:00.613Z,5.80
2018-10-19T16:38:04.438Z,5.10
2018-10-19T16:41:08.045Z,4.77
2018-10-19T16:44:11.734Z,5.20
2018-10-19T16:47:15.468Z,4.70
2018-10-19T16:50:19.093Z,3.87
2018-10-19T16:53:22.905Z,3.93
2018-10-19T16:56:26.701Z,3.73
2018-10-19T16:59:30.370Z,3.80
2018-10-19T17:02:33.936Z,4.50
2018-10-19T17:05:37.763Z,4.40
2018-10-19T17:08:41.457Z,4.23
2018-10-19T17:11:45.031Z,4.17
2018-10-19T17:14:48.760Z,4.23
2018-10-19T17:17:52.419Z,4.53
2018-10-19T17:20:56.126Z,4.40
2018-10-19T17:23:59.898Z,4.57
2018-10-19T17:27:03.541Z,3.90
2018-10-19T17:30:09.590Z,4.00
2018-10-19T17:33:13.303Z,5.27
2018-10-19T17:36:16.832Z,4.40
2018-10-19T17:39:20.545Z,3.60
2018-10-19T17:42:24.457Z,3.73
2018-10-19T17:45:28.144Z,4.47
2018-10-19T17:48:31.848Z,4.23
2018-10-19T17:51:35.544Z,4.53
2018-10-19T17:54:39.177Z,4.90
2018-10-19T17:57:42.801Z,4.40
2018-10-19T18:00:46.406Z,4.70
2018-10-19T18:03:49.966Z,4.43
2018-10-19T18:06:53.636Z,4.23
2018-10-19T18:09:57.371Z,3.97
2018-10-19T18:13:01.106Z,4.53
2018-10-19T18:16:05.000Z,4.07
2018-10-19T18:19:08.480Z,4.27
2018-10-19T18:22:12.660Z,4.10
2018-10-19T18:25:16.077Z,3.93
2018-10-19T18:28:19.749Z,4.10
2018-10-19T18:31:23.381Z,4.30
2018-10-19T18:34:27.091Z,4.70
2018-10-19T18:37:31.184Z,3.63
2018-10-19T18:40:34.791Z,4.10
2018-10-19T18:43:38.494Z,4.20
2018-10-19T18:46:42.154Z,3.93
2018-10-19T18:49:45.835Z,4.70
2018-10-19T18:52:49.443Z,4.43
2018-10-19T18:55:53.187Z,4.87
2018-10-19T18:58:56.908Z,4.57
2018-10-19T19:02:00.600Z,5.10
2018-10-19T19:05:04.308Z,5.30
2018-10-19T19:08:08.107Z,5.30
2018-10-19T19:11:11.681Z,6.67
2018-10-19T19:14:15.506Z,5.83
2018-10-19T19:17:18.955Z,5.83
2018-10-19T19:20:29.833Z,5.77
2018-10-19T19:23:37.617Z,6.00
2018-10-19T19:26:41.361Z,5.60
2018-10-19T19:29:45.232Z,6.60
2018-10-19T19:32:54.082Z,5.93
2018-10-19T19:35:57.500Z,6.27
2018-10-19T19:39:02.180Z,6.40
2018-10-19T19:42:11.589Z,6.30
2018-10-19T19:45:15.526Z,6.27
2018-10-19T19:48:24.373Z,7.43
2018-10-19T19:51:28.798Z,6.97
2018-10-19T19:54:32.477Z,6.63
2018-10-19T19:57:36.117Z,6.40
2018-10-19T20:00:39.726Z,6.07
2018-10-19T20:03:43.352Z,6.80
2018-10-19T20:06:47.018Z,6.87
2018-10-19T20:09:50.903Z,6.73
2018-10-19T20:12:54.513Z,6.60
2018-10-19T20:15:58.523Z,6.70
2018-10-19T20:19:02.227Z,6.60
2018-10-19T20:22:06.255Z,7.60
2018-10-19T20:25:10.988Z,7.50
2018-10-19T20:28:14.657Z,7.70
2018-10-19T20:31:18.256Z,7.20
2018-10-19T20:34:21.968Z,7.70
2018-10-19T20:37:25.852Z,7.80
2018-10-19T20:40:29.418Z,8.07
2018-10-19T20:43:33.251Z,7.17
2018-10-19T20:46:36.947Z,8.03
2018-10-19T20:49:40.443Z,7.80
2018-10-19T20:52:44.043Z,7.63
2018-10-19T20:55:47.769Z,7.90
2018-10-19T20:58:51.390Z,8.50
2018-10-19T21:01:55.125Z,7.90
2018-10-19T21:04:58.795Z,8.03
2018-10-19T21:08:02.549Z,7.87
2018-10-19T21:11:07.014Z,8.97
2018-10-19T21:14:17.125Z,8.07
2018-10-19T21:17:20.853Z,8.70
2018-10-19T21:20:24.384Z,8.90
2018-10-19T21:23:28.035Z,9.70
2018-10-19T21:26:32.039Z,10.53
2018-10-19T21:29:35.647Z,9.67
2018-10-19T21:32:39.254Z,9.53
2018-10-19T21:35:42.828Z,11.30
2018-10-19T21:38:46.583Z,10.57
2018-10-19T21:41:50.169Z,10.20
2018-10-19T21:44:53.827Z,9.90
2018-10-19T21:47:57.366Z,10.90
2018-10-19T21:51:01.007Z,10.17
2018-10-19T21:54:05.175Z,10.40
2018-10-19T21:57:08.878Z,10.50
2018-10-19T22:00:12.717Z,11.20
2018-10-19T22:03:16.317Z,10.60
2018-10-19T22:06:19.923Z,11.90
2018-10-19T22:09:23.543Z,11.00
2018-10-19T22:12:27.265Z,11.20
2018-10-19T22:15:37.319Z,12.23
2018-10-19T22:18:40.917Z,10.80
2018-10-19T22:21:44.519Z,11.77
2018-10-19T22:24:48.139Z,12.10
2018-10-19T22:27:52.106Z,11.23
2018-10-19T22:30:55.787Z,12.03
2018-10-19T22:33:59.391Z,11.93
2018-10-19T22:37:02.969Z,12.27
2018-10-19T22:40:07.099Z,12.33
2018-10-19T22:43:10.715Z,13.17
2018-10-19T22:46:14.319Z,12.80
2018-10-19T22:49:17.939Z,13.60
2018-10-19T22:52:21.612Z,13.43
2018-10-19T22:55:25.292Z,14.00
2018-10-19T22:58:28.863Z,14.23
2018-10-19T23:01:32.407Z,15.00
2018-10-19T23:04:35.983Z,14.00
2018-10-19T23:07:39.627Z,15.30
2018-10-19T23:10:43.463Z,15.50
2018-10-19T23:13:47.263Z,16.80
2018-10-19T23:16:50.874Z,17.27
2018-10-19T23:19:54.699Z,17.97
2018-10-19T23:22:58.342Z,18.50
2018-10-19T23:26:01.918Z,18.77
2018-10-19T23:29:06.039Z,18.87
2018-10-19T23:32:09.513Z,18.57
2018-10-19T23:35:13.261Z,19.37
2018-10-19T23:38:16.733Z,17.13
2018-10-19T23:41:20.404Z,17.90
2018-10-19T23:44:23.989Z,18.77
2018-10-19T23:47:27.705Z,19.77
2018-10-19T23:50:31.269Z,20.33
2018-10-19T23:53:34.988Z,21.90
2018-10-19T23:56:38.645Z,20.30
2018-10-19T23:59:42.308Z,21.63
